Time;durP1;ratioP1;P1;durP2;ratioP2;P2;SDS_P1;SDS_P2;PMS_P1;PMS_P2;Temp;Humidity;BMP_temperature;BMP_pressure;BME280_temperature;BME280_humidity;BME280_pressure;Samples;Min_cycle;Max_cycle;Signal;HPM_P1;HPM_P2
2021/06/27 00:02:34;;;;;;;5.97;5.40;;;22.00;99.80;;;;;;4866718;29;20520;-78
2021/06/27 00:05:20;;;;;;;6.27;5.67;;;22.00;99.80;;;;;;4869287;29;20458;-78
2021/06/27 00:07:51;;;;;;;6.90;6.20;;;22.00;99.90;;;;;;4871875;29;20761;-78
2021/06/27 00:10:29;;;;;;;6.53;5.60;;;21.90;99.90;;;;;;4868649;29;20474;-78
2021/06/27 00:13:10;;;;;;;6.37;5.87;;;21.90;99.90;;;;;;4887594;29;20595;-78
2021/06/27 00:19:37;;;;;;;5.93;5.43;;;21.80;99.90;;;;;;4893222;23;20476;-78
2021/06/27 00:22:58;;;;;;;6.10;5.50;;;21.80;99.90;;;;;;4881815;29;20457;-78
2021/06/27 00:29:23;;;;;;;6.50;5.77;;;21.70;99.90;;;;;;5130389;23;20705;-78
2021/06/27 00:31:50;;;;;;;6.60;6.03;;;21.60;99.90;;;;;;4875020;29;20447;-78
2021/06/27 00:35:06;;;;;;;9.10;5.90;;;21.70;99.90;;;;;;4869118;29;20451;-78
2021/06/27 00:41:12;;;;;;;7.03;6.33;;;21.60;99.90;;;;;;4926829;23;21109;-78
2021/06/27 00:43:37;;;;;;;5.73;5.20;;;21.60;99.90;;;;;;4869284;29;20453;-78
2021/06/27 00:53:55;;;;;;;5.90;5.30;;;21.60;99.90;;;;;;4890194;29;20461;-78
2021/06/27 01:00:44;;;;;;;5.73;5.07;;;21.40;99.90;;;;;;4967438;23;20480;-78
2021/06/27 01:03:29;;;;;;;6.77;6.07;;;21.40;99.90;;;;;;4812482;29;20468;-78
2021/06/27 01:06:00;;;;;;;6.80;6.10;;;21.40;99.90;;;;;;4808306;29;20426;-78
2021/06/27 01:08:26;;;;;;;7.10;6.33;;;21.40;99.90;;;;;;4815916;29;20453;-78
2021/06/27 01:14:32;;;;;;;7.23;6.20;;;21.30;99.90;;;;;;4852158;29;20304;-78
2021/06/27 01:17:17;;;;;;;8.03;7.17;;;21.30;99.90;;;;;;4886364;29;20434;-78
2021/06/27 01:19:52;;;;;;;8.70;5.93;;;21.20;99.90;;;;;;4867119;29;20468;-78
2021/06/27 01:23:09;;;;;;;6.80;6.10;;;21.30;99.90;;;;;;4873120;29;20524;-78
2021/06/27 01:25:58;;;;;;;6.10;5.53;;;21.20;99.90;;;;;;4850313;29;21006;-78
2021/06/27 01:31:21;;;;;;;6.70;6.10;;;21.20;99.90;;;;;;5061288;23;20629;-77
2021/06/27 01:34:15;;;;;;;6.93;6.20;;;21.20;99.90;;;;;;4880511;29;20444;-79
2021/06/27 01:37:12;;;;;;;6.83;6.20;;;21.10;99.90;;;;;;4885570;29;20525;-78
2021/06/27 01:43:34;;;;;;;6.43;5.80;;;21.10;99.90;;;;;;4828147;29;20502;-79
2021/06/27 01:46:03;;;;;;;8.43;5.90;;;21.10;99.90;;;;;;4790270;29;20828;-80
2021/06/27 01:51:17;;;;;;;6.70;6.00;;;21.10;99.90;;;;;;4916071;23;20510;-80
2021/06/27 01:53:45;;;;;;;7.00;6.23;;;21.10;99.90;;;;;;4872761;29;20442;-80
2021/06/27 01:56:11;;;;;;;6.10;5.60;;;21.00;99.90;;;;;;4880715;29;20462;-78
2021/06/27 02:02:44;;;;;;;6.03;5.30;;;20.90;99.90;;;;;;4912512;29;20980;-78
2021/06/27 02:05:11;;;;;;;6.00;5.50;;;20.90;99.90;;;;;;4879015;29;20448;-79
2021/06/27 02:07:43;;;;;;;8.00;6.03;;;20.90;99.90;;;;;;4882810;29;20469;-79
2021/06/27 02:10:22;;;;;;;6.00;5.40;;;20.90;99.90;;;;;;4894108;29;20563;-79
2021/06/27 02:13:00;;;;;;;6.60;5.67;;;20.90;99.90;;;;;;4887062;29;20802;-79
2021/06/27 02:16:04;;;;;;;7.17;6.47;;;20.90;99.90;;;;;;4876732;29;20473;-79
2021/06/27 02:19:12;;;;;;;6.50;5.90;;;20.90;99.90;;;;;;4887733;29;20430;-78
2021/06/27 02:21:50;;;;;;;6.93;6.23;;;20.90;99.90;;;;;;4884102;29;20469;-79
2021/06/27 02:24:27;;;;;;;6.20;5.60;;;20.90;99.90;;;;;;4867500;29;20463;-78
2021/06/27 02:26:53;;;;;;;9.30;5.93;;;20.90;99.90;;;;;;4867327;29;20429;-79
2021/06/27 02:29:19;;;;;;;6.40;5.90;;;20.80;99.90;;;;;;4930847;23;21182;-78
2021/06/27 02:35:07;;;;;;;6.80;5.67;;;20.80;99.90;;;;;;4872983;29;20762;-78
2021/06/27 02:37:51;;;;;;;6.43;5.73;;;20.80;99.90;;;;;;4824146;29;20526;-78
2021/06/27 02:40:37;;;;;;;8.50;5.97;;;20.80;99.90;;;;;;4839935;29;20489;-78
2021/06/27 02:43:09;;;;;;;6.43;5.83;;;20.80;99.90;;;;;;4863507;29;20512;-78
2021/06/27 02:45:36;;;;;;;6.60;5.67;;;20.80;99.90;;;;;;4860093;29;20484;-78
2021/06/27 02:48:01;;;;;;;6.70;6.00;;;20.70;99.90;;;;;;4867339;29;20982;-77
2021/06/27 02:50:31;;;;;;;6.07;5.47;;;20.70;99.90;;;;;;4940609;24;20501;-78
2021/06/27 02:53:12;;;;;;;8.20;5.80;;;20.70;99.90;;;;;;4890241;29;20185;-78
2021/06/27 02:56:06;;;;;;;6.53;5.83;;;20.70;99.90;;;;;;4885097;29;20491;-78
2021/06/27 02:59:34;;;;;;;6.10;5.57;;;20.70;99.90;;;;;;5065944;24;20489;-78
2021/06/27 03:02:15;;;;;;;6.10;5.53;;;20.70;99.90;;;;;;4833964;29;20994;-77
2021/06/27 03:04:41;;;;;;;7.70;5.23;;;20.70;99.90;;;;;;4866937;29;20513;-78
2021/06/27 03:11:18;;;;;;;6.90;6.20;;;20.60;99.90;;;;;;4932653;23;20247;-78
2021/06/27 03:13:56;;;;;;;7.83;6.37;;;20.60;99.90;;;;;;4886509;29;20855;-78
2021/06/27 03:17:23;;;;;;;6.27;5.67;;;20.50;99.90;;;;;;4881201;29;20672;-78
2021/06/27 03:23:39;;;;;;;6.90;6.23;;;20.50;99.90;;;;;;4895334;29;20478;-78
2021/06/27 03:26:55;;;;;;;7.17;6.47;;;20.50;99.90;;;;;;4858146;29;20465;-78
2021/06/27 03:29:52;;;;;;;6.03;5.43;;;20.50;99.90;;;;;;5074747;23;20525;-77
2021/06/27 03:40:07;;;;;;;8.57;7.10;;;20.50;99.90;;;;;;4843449;29;20528;-77
2021/06/27 03:53:59;;;;;;;7.50;6.20;;;20.40;99.90;;;;;;4853152;29;20903;-77
2021/06/27 04:21:37;;;;;;;5.43;5.03;;;20.20;99.90;;;;;;4826159;29;20515;-79
2021/06/27 04:49:27;;;;;;;5.73;5.13;;;20.20;99.90;;;;;;4886505;24;20779;-77
2021/06/27 05:01:39;;;;;;;5.67;5.17;;;20.20;99.90;;;;;;4842191;29;20512;-76
2021/06/27 05:08:15;;;;;;;6.17;5.37;;;20.20;99.90;;;;;;4841478;29;20456;-76
2021/06/27 05:10:42;;;;;;;8.10;5.90;;;20.30;99.90;;;;;;5219953;23;20499;-79
2021/06/27 05:13:19;;;;;;;7.00;6.10;;;20.30;99.90;;;;;;4858771;29;20790;-78
2021/06/27 05:16:41;;;;;;;7.50;6.23;;;20.30;99.90;;;;;;4877647;29;20438;-78
2021/06/27 05:19:10;;;;;;;6.13;5.57;;;20.30;99.90;;;;;;4863913;24;20509;-78
2021/06/27 05:25:26;;;;;;;6.00;5.27;;;20.30;99.90;;;;;;4881906;29;20943;-78
2021/06/27 05:31:16;;;;;;;5.67;5.03;;;20.30;99.90;;;;;;4851241;29;20480;-78
2021/06/27 05:34:22;;;;;;;6.40;5.80;;;20.30;99.90;;;;;;4837122;29;20499;-78
2021/06/27 05:37:00;;;;;;;6.27;5.63;;;20.30;99.90;;;;;;4845342;29;20455;-78
2021/06/27 05:43:52;;;;;;;7.07;6.37;;;20.40;99.90;;;;;;4876801;29;21171;-78
2021/06/27 05:46:20;;;;;;;6.90;5.63;;;20.40;99.90;;;;;;4884514;29;20960;-78
2021/06/27 05:57:10;;;;;;;6.23;5.40;;;20.50;99.90;;;;;;4877330;29;20480;-78
2021/06/27 06:00:02;;;;;;;5.90;5.30;;;20.60;99.90;;;;;;4890374;29;20979;-78
2021/06/27 06:18:09;;;;;;;6.43;5.47;;;20.70;99.90;;;;;;4876751;29;20506;-80
2021/06/27 06:28:04;;;;;;;7.17;5.37;;;20.80;99.90;;;;;;4838381;29;20496;-78
2021/06/27 06:31:01;;;;;;;7.20;6.13;;;20.90;99.90;;;;;;4864823;29;20528;-79
2021/06/27 06:33:27;;;;;;;7.07;6.37;;;21.00;99.90;;;;;;4840282;29;20493;-78
2021/06/27 06:55:10;;;;;;;7.23;6.43;;;21.40;99.90;;;;;;4877902;29;20992;-78
2021/06/27 06:58:01;;;;;;;6.70;6.10;;;21.50;99.90;;;;;;4869826;29;20525;-77
2021/06/27 07:08:13;;;;;;;7.60;6.90;;;21.70;99.90;;;;;;4872469;29;20571;-78
2021/06/27 07:10:55;;;;;;;5.23;4.83;;;21.70;99.90;;;;;;4843868;29;20625;-78
2021/06/27 07:29:00;;;;;;;6.90;6.20;;;22.00;99.90;;;;;;4866663;29;20425;-78
2021/06/27 07:32:08;;;;;;;6.93;6.30;;;22.10;99.90;;;;;;4854112;29;20978;-77
2021/06/27 07:44:51;;;;;;;6.53;5.83;;;22.30;99.90;;;;;;4845936;29;20416;-78
2021/06/27 07:55:24;;;;;;;8.30;7.47;;;22.50;99.90;;;;;;4864345;29;20459;-78
2021/06/27 08:02:06;;;;;;;7.53;6.83;;;22.70;99.90;;;;;;4902433;29;20543;-78
2021/06/27 09:22:15;;;;;;;8.03;6.50;;;25.20;99.90;;;;;;5083443;23;20477;-80
2021/06/27 09:39:12;;;;;;;7.70;7.00;;;25.90;99.90;;;;;;4929628;23;20495;-78
2021/06/27 10:20:13;;;;;;;8.20;7.07;;;26.90;99.90;;;;;;5571219;24;20514;-78
2021/06/27 10:22:51;;;;;;;8.23;7.47;;;26.90;99.90;;;;;;4847293;29;20459;-78
2021/06/27 10:26:04;;;;;;;8.13;7.30;;;26.90;99.90;;;;;;4842397;29;20463;-78
2021/06/27 11:13:50;;;;;;;6.80;6.30;;;27.70;99.10;;;;;;5304716;23;20524;-77
2021/06/27 11:24:00;;;;;;;6.87;6.27;;;27.80;99.30;;;;;;4876381;29;20418;-80
2021/06/27 11:26:40;;;;;;;5.70;5.23;;;27.80;98.70;;;;;;4859144;29;20549;-78
2021/06/27 11:29:25;;;;;;;6.17;5.63;;;27.90;98.10;;;;;;4875153;29;20462;-79
2021/06/27 11:42:38;;;;;;;6.33;5.80;;;27.70;97.60;;;;;;4865361;29;20525;-79
2021/06/27 12:06:03;;;;;;;6.47;5.90;;;28.10;97.70;;;;;;4887982;29;20483;-80
2021/06/27 12:13:13;;;;;;;5.80;5.30;;;28.10;97.20;;;;;;4901912;29;20863;-79
2021/06/27 12:16:32;;;;;;;6.80;5.20;;;28.20;97.40;;;;;;4882990;29;20476;-80
2021/06/27 12:53:38;;;;;;;6.03;5.53;;;28.20;96.20;;;;;;4904218;29;20419;-79
2021/06/27 13:04:03;;;;;;;6.13;5.73;;;28.30;96.20;;;;;;4879947;29;20867;-79
2021/06/27 13:10:41;;;;;;;5.23;4.73;;;28.30;96.50;;;;;;4988727;23;20518;-78
2021/06/27 13:17:39;;;;;;;5.60;5.20;;;28.30;96.20;;;;;;4879548;29;20438;-78
2021/06/27 13:21:04;;;;;;;5.50;4.97;;;28.30;96.00;;;;;;4876677;29;20229;-78
2021/06/27 13:23:37;;;;;;;5.43;4.97;;;28.30;96.00;;;;;;4859438;29;20466;-78
2021/06/27 13:26:22;;;;;;;5.30;5.00;;;28.30;96.00;;;;;;4888227;29;20449;-78
2021/06/27 13:29:20;;;;;;;6.10;4.70;;;28.20;95.70;;;;;;4867029;29;20488;-78
2021/06/27 13:32:43;;;;;;;6.60;4.93;;;28.20;95.70;;;;;;4884820;29;20496;-78
2021/06/27 13:36:11;;;;;;;5.40;5.00;;;28.30;95.80;;;;;;4795782;29;20618;-80
2021/06/27 13:39:15;;;;;;;5.57;5.17;;;28.30;95.80;;;;;;4747006;30;20470;-79
2021/06/27 13:46:20;;;;;;;5.27;4.87;;;28.20;95.70;;;;;;4750428;30;20339;-79
2021/06/27 14:00:22;;;;;;;5.43;5.07;;;28.20;95.70;;;;;;4820572;29;20428;-79
2021/06/27 14:10:55;;;;;;;4.70;4.40;;;28.30;96.60;;;;;;4670410;30;20486;-79
2021/06/27 14:14:19;;;;;;;8.33;5.50;;;28.40;96.50;;;;;;4667292;30;20563;-79
2021/06/27 14:16:57;;;;;;;5.20;4.70;;;28.40;96.20;;;;;;4692818;30;20540;-79
2021/06/27 14:31:09;;;;;;;5.50;5.10;;;28.40;95.70;;;;;;4719866;30;20562;-80
2021/06/27 14:33:42;;;;;;;5.60;5.13;;;28.30;95.50;;;;;;4684457;30;20491;-79
2021/06/27 14:36:11;;;;;;;5.47;5.07;;;28.30;95.60;;;;;;4756062;29;20437;-79
2021/06/27 14:41:44;;;;;;;6.23;5.63;;;28.40;95.70;;;;;;4987457;23;20550;-80
2021/06/27 14:44:10;;;;;;;5.50;5.10;;;28.50;95.60;;;;;;4878326;29;20469;-81
2021/06/27 14:46:53;;;;;;;5.70;5.30;;;28.50;95.60;;;;;;4860495;29;20468;-80
2021/06/27 14:53:11;;;;;;;5.27;4.87;;;28.40;95.50;;;;;;4838104;29;20456;-79
2021/06/27 14:55:48;;;;;;;6.07;5.57;;;28.40;95.60;;;;;;4831836;29;20234;-79
2021/06/27 14:58:20;;;;;;;6.07;5.57;;;28.40;95.50;;;;;;4828496;29;20273;-79
2021/06/27 15:01:14;;;;;;;6.20;5.70;;;28.40;95.20;;;;;;4901448;23;20380;-79
2021/06/27 15:07:29;;;;;;;5.97;5.37;;;28.40;95.20;;;;;;4872051;29;20292;-79
2021/06/27 15:10:26;;;;;;;6.00;5.50;;;28.40;95.50;;;;;;4861019;29;20717;-79
2021/06/27 15:17:12;;;;;;;7.07;6.10;;;28.40;95.60;;;;;;4829963;29;20582;-79
2021/06/27 15:19:56;;;;;;;6.70;6.10;;;28.40;95.50;;;;;;4801650;29;20226;-79
2021/06/27 15:22:53;;;;;;;6.20;5.70;;;28.40;95.60;;;;;;4797581;29;20480;-79
2021/06/27 15:26:24;;;;;;;5.60;5.20;;;28.40;95.50;;;;;;4809129;29;20853;-79
2021/06/27 15:29:09;;;;;;;5.90;5.50;;;28.40;95.60;;;;;;4792093;29;20275;-80
2021/06/27 15:32:19;;;;;;;5.43;5.03;;;28.40;95.70;;;;;;4802687;29;20680;-79
2021/06/27 15:35:00;;;;;;;6.72;6.13;;;28.50;95.90;;;;;;4818017;29;20217;-79
2021/06/27 15:37:40;;;;;;;5.20;4.80;;;28.50;95.90;;;;;;4811956;29;20239;-80
2021/06/27 15:47:34;;;;;;;5.67;5.20;;;28.50;96.40;;;;;;4839215;29;20717;-79
2021/06/27 15:53:51;;;;;;;6.05;5.57;;;28.40;96.40;;;;;;4854780;29;20200;-79
2021/06/27 16:11:24;;;;;;;6.00;5.50;;;28.30;96.60;;;;;;4841723;29;20241;-80
2021/06/27 16:14:47;;;;;;;5.67;5.17;;;28.30;96.40;;;;;;4828500;29;20455;-79
2021/06/27 16:17:24;;;;;;;6.03;5.53;;;28.30;96.30;;;;;;4834892;29;20201;-79
2021/06/27 16:20:29;;;;;;;6.07;5.57;;;28.20;96.00;;;;;;4841498;29;20795;-79
2021/06/27 16:22:55;;;;;;;6.23;5.77;;;28.20;96.20;;;;;;4715649;30;20229;-79
2021/06/27 16:25:28;;;;;;;4.93;4.57;;;28.20;96.30;;;;;;4733506;30;20471;-79
2021/06/27 16:27:53;;;;;;;6.03;5.53;;;28.20;96.40;;;;;;4733673;30;20845;-79
2021/06/27 16:30:39;;;;;;;5.75;5.25;;;28.10;96.40;;;;;;4740320;30;20745;-79
2021/06/27 16:33:06;;;;;;;5.88;5.38;;;28.10;96.50;;;;;;4751554;30;20309;-79
2021/06/27 16:35:47;;;;;;;6.20;5.70;;;28.10;96.50;;;;;;4747714;30;20727;-79
2021/06/27 16:38:13;;;;;;;5.57;5.07;;;28.10;96.70;;;;;;4748487;30;20467;-79
2021/06/27 16:40:38;;;;;;;5.67;5.20;;;28.10;96.90;;;;;;4804206;29;20612;-80
2021/06/27 16:43:55;;;;;;;5.07;4.70;;;28.10;97.10;;;;;;4858596;29;20948;-79
2021/06/27 16:47:11;;;;;;;5.60;5.10;;;28.00;97.30;;;;;;4791966;29;20214;-79
2021/06/27 16:49:51;;;;;;;6.87;5.90;;;28.00;97.90;;;;;;4816534;29;20266;-79
2021/06/27 16:52:23;;;;;;;6.10;5.60;;;27.90;97.90;;;;;;4823951;29;20229;-79
2021/06/27 16:55:03;;;;;;;;;;;;;;;;;;;;;
2021/06/27 16:57:34;;;;;;;5.63;5.23;;;27.90;98.50;;;;;;4823216;29;20800;-79
2021/06/27 17:00:57;;;;;;;6.43;5.83;;;27.90;98.90;;;;;;4834444;29;20478;-78
2021/06/27 17:04:20;;;;;;;5.73;5.23;;;27.80;98.70;;;;;;4831587;29;20222;-78
2021/06/27 17:06:57;;;;;;;5.20;4.87;;;27.80;99.00;;;;;;4782945;29;20482;-78
2021/06/27 17:09:48;;;;;;;6.30;5.70;;;27.80;99.10;;;;;;4818705;29;20222;-78
2021/06/27 17:12:31;;;;;;;5.67;5.27;;;27.70;99.10;;;;;;4812507;29;20455;-79
2021/06/27 17:15:00;;;;;;;5.83;5.37;;;27.70;99.00;;;;;;4845763;29;20318;-79
2021/06/27 17:17:29;;;;;;;6.33;5.80;;;27.70;98.80;;;;;;4815306;29;20550;-78
2021/06/27 17:24:13;;;;;;;5.97;5.50;;;27.70;98.70;;;;;;4833695;29;20478;-79
2021/06/27 17:26:39;;;;;;;6.30;5.57;;;27.70;98.50;;;;;;4825868;29;20523;-78
2021/06/27 17:29:04;;;;;;;5.83;5.43;;;27.60;98.20;;;;;;4790974;29;20501;-79
2021/06/27 17:31:33;;;;;;;7.07;5.77;;;27.60;98.00;;;;;;4804904;29;20280;-78
2021/06/27 17:34:45;;;;;;;5.87;5.37;;;27.60;97.90;;;;;;4809873;29;20231;-78
2021/06/27 17:40:54;;;;;;;5.90;5.30;;;27.50;97.70;;;;;;4837351;29;20498;-79
2021/06/27 17:43:45;;;;;;;4.63;4.33;;;27.50;97.90;;;;;;4794493;29;20503;-80
2021/06/27 17:50:08;;;;;;;6.00;5.50;;;27.60;98.30;;;;;;4864552;29;20579;-78
2021/06/27 17:52:57;;;;;;;5.87;5.47;;;27.50;98.10;;;;;;4842533;29;20947;-79
2021/06/27 17:56:35;;;;;;;;;;;;;;;;;;;;;
2021/06/27 17:59:13;;;;;;;6.20;5.53;;;27.50;98.20;;;;;;4841266;29;20496;-78
2021/06/27 18:02:11;;;;;;;;;;;;;;;;;;;;;
2021/06/27 18:05:35;;;;;;;5.40;4.90;;;27.50;98.80;;;;;;4825768;29;20958;-78
2021/06/27 18:08:10;;;;;;;8.83;5.80;;;27.50;99.10;;;;;;4817300;29;20443;-77
2021/06/27 18:10:44;;;;;;;5.13;4.73;;;27.50;99.30;;;;;;4835160;29;20467;-76
2021/06/27 18:14:03;;;;;;;6.03;5.53;;;27.50;99.40;;;;;;4806003;29;20447;-81
2021/06/27 18:16:31;;;;;;;5.17;4.77;;;27.50;99.60;;;;;;4805786;29;20448;-77
2021/06/27 18:19:10;;;;;;;6.30;5.50;;;27.50;99.60;;;;;;4811441;29;20459;-77
2021/06/27 18:21:42;;;;;;;5.60;5.20;;;27.40;99.30;;;;;;4829696;29;20495;-78
2021/06/27 18:24:50;;;;;;;5.90;5.50;;;27.40;99.20;;;;;;4820469;29;20476;-77
2021/06/27 18:27:47;;;;;;;5.90;5.20;;;27.40;99.20;;;;;;4838395;29;20468;-78
2021/06/27 18:30:19;;;;;;;5.43;5.03;;;27.30;99.20;;;;;;4762985;29;20893;-77
2021/06/27 18:33:00;;;;;;;5.43;5.03;;;27.30;99.20;;;;;;4784577;29;20979;-77
2021/06/27 18:35:32;;;;;;;4.80;4.40;;;27.20;99.20;;;;;;4770028;29;20476;-77
2021/06/27 18:41:40;;;;;;;4.70;4.40;;;27.20;99.20;;;;;;4878656;29;20514;-78
2021/06/27 18:48:21;;;;;;;5.03;4.63;;;27.20;99.30;;;;;;4873566;29;20520;-81
2021/06/27 18:50:53;;;;;;;6.13;5.17;;;27.20;99.40;;;;;;4860691;29;20458;-78
2021/06/27 18:53:36;;;;;;;6.33;5.37;;;27.10;99.50;;;;;;4843649;29;20455;-79
2021/06/27 18:56:17;;;;;;;5.03;4.63;;;27.10;99.50;;;;;;4857051;29;20439;-78
2021/06/27 18:59:15;;;;;;;5.00;4.60;;;27.10;99.50;;;;;;4836489;29;20875;-79
2021/06/27 19:02:31;;;;;;;5.83;5.33;;;27.00;99.70;;;;;;4823770;29;20515;-78
2021/06/27 19:05:28;;;;;;;5.53;5.03;;;27.00;99.70;;;;;;4841040;29;20910;-78
2021/06/27 19:08:22;;;;;;;5.60;5.10;;;26.90;99.80;;;;;;4851019;29;20514;-78
2021/06/27 19:11:05;;;;;;;5.57;5.17;;;26.90;99.80;;;;;;4894398;23;20477;-80
2021/06/27 19:14:24;;;;;;;5.87;5.37;;;26.90;99.90;;;;;;4814703;29;20495;-79
2021/06/27 19:17:38;;;;;;;4.67;4.37;;;26.90;99.90;;;;;;4849458;29;20461;-80
2021/06/27 19:20:49;;;;;;;6.63;6.13;;;26.90;99.90;;;;;;4855021;29;20466;-79
2021/06/27 19:23:30;;;;;;;5.70;5.20;;;26.80;99.90;;;;;;4870600;29;20826;-79
2021/06/27 19:26:21;;;;;;;5.70;5.30;;;26.80;99.90;;;;;;4856944;29;20553;-80
2021/06/27 19:29:01;;;;;;;5.00;4.60;;;26.80;99.90;;;;;;4865481;23;20980;-79
2021/06/27 19:35:06;;;;;;;5.40;5.00;;;26.70;99.90;;;;;;4875821;29;20486;-80
2021/06/27 19:38:03;;;;;;;5.80;5.33;;;26.70;99.90;;;;;;4859818;29;20443;-79
2021/06/27 19:41:43;;;;;;;5.90;5.47;;;26.70;99.90;;;;;;5024406;23;20597;-80
2021/06/27 19:44:44;;;;;;;6.03;5.50;;;26.70;99.90;;;;;;4803216;29;20479;-81
2021/06/27 19:47:36;;;;;;;5.70;5.30;;;26.60;99.90;;;;;;4789123;29;20475;-80
2021/06/27 19:50:17;;;;;;;6.33;5.73;;;26.60;99.90;;;;;;4806206;29;20501;-79
2021/06/27 19:53:07;;;;;;;4.83;4.43;;;26.50;99.90;;;;;;4808190;29;20459;-80
2021/06/27 19:55:35;;;;;;;6.17;5.67;;;26.50;99.90;;;;;;4826168;29;20436;-80
2021/06/27 20:03:01;;;;;;;6.70;6.10;;;26.40;99.90;;;;;;4875697;29;20502;-80
2021/06/27 20:05:29;;;;;;;6.17;5.67;;;26.30;99.90;;;;;;4860873;29;20568;-79
2021/06/27 20:08:10;;;;;;;4.57;4.27;;;26.30;99.90;;;;;;4868996;29;20552;-80
2021/06/27 20:10:45;;;;;;;9.87;8.87;;;26.30;99.90;;;;;;4899084;29;20465;-80
2021/06/27 20:13:40;;;;;;;13.07;11.80;;;26.30;99.90;;;;;;4858407;29;20457;-79
2021/06/27 20:19:32;;;;;;;6.33;5.83;;;26.20;99.90;;;;;;4875232;29;20465;-78
2021/06/27 20:21:59;;;;;;;5.90;5.30;;;26.20;99.90;;;;;;4875275;29;20477;-79
2021/06/27 20:28:53;;;;;;;5.70;5.20;;;26.20;99.90;;;;;;4843349;29;21437;-78
2021/06/27 20:31:38;;;;;;;5.10;4.70;;;26.10;99.90;;;;;;4843384;29;20457;-78
2021/06/27 20:34:41;;;;;;;6.23;5.63;;;26.00;99.90;;;;;;4859527;29;20487;-78
2021/06/27 20:37:41;;;;;;;5.90;5.50;;;26.00;99.90;;;;;;4859247;29;20474;-79
2021/06/27 20:40:26;;;;;;;5.50;5.00;;;26.00;99.90;;;;;;4855005;29;20463;-79
2021/06/27 20:43:04;;;;;;;6.00;5.50;;;25.80;99.90;;;;;;4810238;29;20496;-79
2021/06/27 20:45:36;;;;;;;6.17;5.60;;;25.80;99.90;;;;;;4788706;29;20557;-78
2021/06/27 20:48:02;;;;;;;5.03;4.67;;;25.70;99.90;;;;;;4819051;29;20942;-79
2021/06/27 20:51:14;;;;;;;5.13;4.73;;;25.80;99.90;;;;;;4786960;29;20513;-79
2021/06/27 20:53:40;;;;;;;5.70;5.20;;;25.70;99.90;;;;;;4808072;29;21243;-78
2021/06/27 20:56:41;;;;;;;7.07;4.87;;;25.60;99.90;;;;;;4810958;29;20445;-79
2021/06/27 20:59:35;;;;;;;5.93;5.43;;;25.40;99.90;;;;;;4822994;29;20892;-78
2021/06/27 21:02:04;;;;;;;5.30;4.90;;;25.40;99.90;;;;;;4775698;29;20473;-78
2021/06/27 21:05:42;;;;;;;5.37;4.97;;;25.40;99.90;;;;;;4811950;29;20476;-78
2021/06/27 21:14:02;;;;;;;5.50;5.00;;;25.40;99.90;;;;;;4886822;29;20942;-78
2021/06/27 21:23:21;;;;;;;5.97;5.40;;;25.00;99.90;;;;;;4850848;29;20487;-78
2021/06/27 21:29:49;;;;;;;5.40;5.00;;;25.10;99.90;;;;;;4895725;29;20477;-78
2021/06/27 21:33:08;;;;;;;5.20;4.70;;;25.00;99.90;;;;;;4879069;29;20477;-78
2021/06/27 21:36:05;;;;;;;5.47;4.97;;;25.00;99.90;;;;;;4893466;29;20481;-78
2021/06/27 21:38:34;;;;;;;6.00;4.83;;;25.00;99.90;;;;;;4869344;29;20818;-78
2021/06/27 21:44:38;;;;;;;5.20;4.70;;;24.80;99.90;;;;;;4856994;29;20561;-78
2021/06/27 21:47:06;;;;;;;6.83;5.40;;;24.80;99.90;;;;;;4866310;29;20568;-78
2021/06/27 21:49:44;;;;;;;5.07;4.67;;;24.80;99.90;;;;;;4866295;29;20224;-78
2021/06/27 21:56:32;;;;;;;5.03;4.63;;;24.80;99.90;;;;;;4828862;29;20429;-77
2021/06/27 21:59:10;;;;;;;5.10;4.70;;;24.80;99.90;;;;;;4801695;29;20878;-78
2021/06/27 22:01:35;;;;;;;4.90;4.50;;;24.80;99.90;;;;;;4809419;29;20503;-78
2021/06/27 22:08:54;;;;;;;5.30;4.80;;;24.80;99.90;;;;;;4740134;30;20290;-77
2021/06/27 22:12:04;;;;;;;4.97;4.57;;;24.70;99.90;;;;;;4752662;30;20509;-77
2021/06/27 22:14:52;;;;;;;5.30;4.83;;;24.70;99.90;;;;;;4724363;30;20466;-78
2021/06/27 22:17:20;;;;;;;5.40;5.00;;;24.70;99.90;;;;;;4747651;30;20442;-77
2021/06/27 22:20:02;;;;;;;5.43;4.93;;;24.70;99.90;;;;;;4732568;30;20467;-77
2021/06/27 22:26:25;;;;;;;5.00;4.50;;;24.60;99.90;;;;;;4824833;29;20546;-77
2021/06/27 22:34:31;;;;;;;6.43;5.03;;;24.60;99.90;;;;;;4862884;29;20584;-77
2021/06/27 22:37:15;;;;;;;5.80;5.30;;;24.50;99.90;;;;;;4852399;29;20997;-78
2021/06/27 22:43:49;;;;;;;6.50;5.90;;;24.40;99.90;;;;;;4868360;29;20878;-80
2021/06/27 22:46:34;;;;;;;5.10;4.70;;;24.40;99.90;;;;;;4870365;29;20457;-79
2021/06/27 22:49:06;;;;;;;5.63;5.23;;;24.40;99.90;;;;;;4866257;29;20512;-79
2021/06/27 22:55:47;;;;;;;5.50;5.00;;;24.30;99.90;;;;;;4840927;29;20447;-80
2021/06/27 23:02:19;;;;;;;6.10;4.80;;;24.20;99.90;;;;;;4810785;29;20487;-80
2021/06/27 23:05:38;;;;;;;6.13;5.60;;;24.20;99.90;;;;;;4834249;29;20478;-79
2021/06/27 23:08:10;;;;;;;5.03;4.63;;;24.20;99.90;;;;;;4838062;29;20479;-79
2021/06/27 23:14:22;;;;;;;5.87;5.37;;;24.00;99.90;;;;;;4843689;29;20463;-79
2021/06/27 23:20:55;;;;;;;4.93;4.43;;;24.00;99.90;;;;;;4814391;29;20602;-79
2021/06/27 23:23:27;;;;;;;4.80;4.40;;;24.00;99.90;;;;;;4801911;29;20484;-80
2021/06/27 23:25:53;;;;;;;6.10;5.40;;;24.00;99.90;;;;;;4870781;29;20453;-79
2021/06/27 23:36:53;;;;;;;6.20;4.77;;;23.80;99.90;;;;;;4916202;29;20463;-79
2021/06/27 23:43:49;;;;;;;4.80;4.40;;;23.70;99.90;;;;;;4898413;29;20491;-79
2021/06/27 23:46:45;;;;;;;4.90;4.50;;;23.60;99.90;;;;;;4802059;29;20473;-79
2021/06/27 23:49:20;;;;;;;4.80;4.40;;;23.60;99.90;;;;;;4846601;29;20471;-79
2021/06/27 23:56:04;;;;;;;6.13;4.53;;;23.60;99.90;;;;;;4839378;29;20500;-79
2021/06/27 23:58:54;;;;;;;7.13;6.00;;;23.40;99.90;;;;;;4830708;29;20435;-79
